createdAt,value
2023-03-23T15:58:37.089Z,94771.31
2023-03-23T16:01:09.367Z,94777.53
2023-03-23T16:03:44.984Z,94773.03
2023-03-23T16:06:23.196Z,94776.50
2023-03-23T16:08:56.630Z,94781.88
2023-03-23T16:11:27.533Z,94783.75
2023-03-23T16:13:57.106Z,94782.97
2023-03-23T16:16:29.387Z,94791.50
2023-03-23T16:18:58.734Z,94796.84
2023-03-23T16:21:28.214Z,94788.81
2023-03-23T16:23:59.268Z,94792.59
2023-03-23T16:26:28.491Z,94791.78
2023-03-23T16:29:09.921Z,94787.50
2023-03-23T16:31:44.375Z,94794.44
2023-03-23T16:34:13.361Z,94791.50
2023-03-23T16:36:42.475Z,94795.78
2023-03-23T16:39:14.035Z,94798.19
2023-03-23T16:41:44.143Z,94799.78
2023-03-23T16:44:13.238Z,94792.59
2023-03-23T16:46:42.318Z,94796.81
2023-03-23T16:49:11.586Z,94800.28
2023-03-23T16:51:42.823Z,94801.88
2023-03-23T16:54:13.831Z,94808.25
2023-03-23T16:56:47.019Z,94810.38
2023-03-23T16:59:16.144Z,94798.91
2023-03-23T17:01:45.335Z,94802.91
2023-03-23T17:04:16.559Z,94798.56
2023-03-23T17:06:46.437Z,94805.50
2023-03-23T17:09:17.768Z,94807.06
2023-03-23T17:11:46.908Z,94807.59
2023-03-23T17:14:16.585Z,94807.31
2023-03-23T17:16:45.793Z,94814.47
2023-03-23T17:19:15.806Z,94812.34
2023-03-23T17:21:45.150Z,94813.38
2023-03-23T17:24:14.260Z,94813.31
2023-03-23T17:26:45.007Z,94820.03
2023-03-23T17:29:14.109Z,94825.94
2023-03-23T17:31:43.320Z,94825.63
2023-03-23T17:34:12.983Z,94836.38
2023-03-23T17:36:42.054Z,94836.16
2023-03-23T17:39:11.421Z,94831.75
2023-03-23T17:41:40.524Z,94854.38
2023-03-23T17:44:11.158Z,94846.94
2023-03-23T17:46:40.367Z,94848.56
2023-03-23T17:49:09.630Z,94851.72
2023-03-23T17:51:39.254Z,94852.31
2023-03-23T17:54:09.103Z,94851.53
2023-03-23T17:56:38.672Z,94853.31
2023-03-23T17:59:08.153Z,94863.94
2023-03-23T18:01:38.797Z,94863.88
2023-03-23T18:04:08.127Z,94865.22
2023-03-23T18:06:37.187Z,94866.03
2023-03-23T18:09:06.480Z,94872.06
2023-03-23T18:11:35.745Z,94877.88
2023-03-23T18:14:05.134Z,94883.91
2023-03-23T18:16:34.312Z,94886.28
2023-03-23T18:19:05.503Z,94886.47
2023-03-23T18:21:38.145Z,94880.88
2023-03-23T18:24:09.168Z,94884.50
2023-03-23T18:26:39.434Z,94893.44
2023-03-23T18:29:08.782Z,94896.59
2023-03-23T18:31:40.424Z,94891.22
2023-03-23T18:34:11.085Z,94903.41
2023-03-23T18:36:40.485Z,94908.78
2023-03-23T18:39:11.043Z,94908.72
2023-03-23T18:41:41.268Z,94903.88
2023-03-23T18:44:10.735Z,94907.47
2023-03-23T18:46:39.809Z,94909.06
2023-03-23T18:49:10.469Z,94906.72
2023-03-23T18:51:39.689Z,94909.19
2023-03-23T18:54:08.815Z,94917.66
2023-03-23T18:56:37.996Z,94923.59
2023-03-23T18:59:07.782Z,94932.31
2023-03-23T19:01:37.026Z,94931.59
2023-03-23T19:04:07.010Z,94929.69
2023-03-23T19:06:38.018Z,94924.44
2023-03-23T19:09:07.457Z,94934.41
2023-03-23T19:11:36.775Z,94939.06
2023-03-23T19:14:05.900Z,94938.59
2023-03-23T19:16:36.943Z,94947.19
2023-03-23T19:19:07.824Z,94950.75
2023-03-23T19:21:39.981Z,94953.72
2023-03-23T19:24:10.352Z,94962.63
2023-03-23T19:26:42.109Z,94958.63
2023-03-23T19:31:46.768Z,94957.06
2023-03-23T19:34:17.281Z,94960.25
2023-03-23T19:36:54.365Z,94970.59
2023-03-23T19:39:24.195Z,94960.53
2023-03-23T19:41:54.379Z,94969.53
2023-03-23T19:44:23.669Z,94966.19
2023-03-23T19:46:52.978Z,94974.00
2023-03-23T19:49:22.342Z,94975.03
2023-03-23T19:52:06.518Z,94979.16
2023-03-23T19:54:40.945Z,94975.59
2023-03-23T19:57:11.383Z,94977.66
2023-03-23T19:59:40.625Z,94973.53
2023-03-23T20:02:12.985Z,94980.75
2023-03-23T20:04:43.712Z,94979.28
2023-03-23T20:07:15.622Z,94981.81
2023-03-23T20:09:45.550Z,94984.94
2023-03-23T20:12:14.666Z,94986.97
2023-03-23T20:14:45.578Z,94990.44
2023-03-23T20:17:14.949Z,94998.84
2023-03-23T20:19:44.571Z,94991.13
2023-03-23T20:22:15.750Z,95007.56
2023-03-23T20:24:48.270Z,95008.97
2023-03-23T20:27:18.400Z,95008.38
2023-03-23T20:29:47.452Z,95006.66
2023-03-23T20:32:16.628Z,95009.63
2023-03-23T20:34:49.789Z,94998.47
2023-03-23T20:37:21.061Z,95002.47
2023-03-23T20:39:50.884Z,95007.66
2023-03-23T20:42:20.029Z,95009.50
2023-03-23T20:44:49.150Z,95005.31
2023-03-23T20:47:18.148Z,95006.69
2023-03-23T20:49:53.127Z,95008.75
2023-03-23T20:52:26.214Z,95001.97
2023-03-23T20:54:56.112Z,95007.22
2023-03-23T20:57:25.650Z,94995.00
2023-03-23T20:59:55.788Z,94996.59
2023-03-23T21:02:26.175Z,94992.66
2023-03-23T21:04:55.381Z,94991.50
2023-03-23T21:07:27.664Z,94995.97
2023-03-23T21:09:56.802Z,95003.09
2023-03-23T21:12:25.827Z,94995.69
2023-03-23T21:14:54.998Z,94997.78
2023-03-23T21:17:24.059Z,95006.94
2023-03-23T21:19:53.405Z,95007.97
2023-03-23T21:22:23.072Z,95000.00
2023-03-23T21:24:54.133Z,95008.97
2023-03-23T21:27:23.243Z,95005.19
2023-03-23T21:29:52.267Z,95004.03
2023-03-23T21:32:21.379Z,95007.81
2023-03-23T21:34:50.484Z,95008.09
2023-03-23T21:37:19.722Z,94999.28
2023-03-23T21:39:48.970Z,94996.88
2023-03-23T21:42:19.472Z,95002.03
2023-03-23T21:44:49.015Z,94996.63
2023-03-23T21:47:18.396Z,95006.56
2023-03-23T21:49:47.375Z,94999.25
2023-03-23T21:52:16.574Z,95002.69
2023-03-23T21:54:45.851Z,94994.41
2023-03-23T21:57:14.875Z,94996.84
2023-03-23T21:59:45.565Z,95001.03
2023-03-23T22:02:16.113Z,94999.78
2023-03-23T22:05:03.710Z,95014.19
2023-03-23T22:07:51.313Z,95012.75
2023-03-23T22:10:21.187Z,95012.69
2023-03-23T22:12:53.753Z,95015.59
2023-03-23T22:15:28.143Z,95007.91
2023-03-23T22:17:57.278Z,95015.38
2023-03-23T22:20:26.943Z,95017.22
2023-03-23T22:22:56.359Z,95007.25
2023-03-23T22:25:25.732Z,95014.13
2023-03-23T22:27:55.631Z,95020.06
2023-03-23T22:30:29.960Z,95016.72
2023-03-23T22:32:59.085Z,95018.13
2023-03-23T22:35:29.038Z,95012.84
2023-03-23T22:37:58.275Z,95023.53
2023-03-23T22:40:27.420Z,95023.31
2023-03-23T22:42:57.119Z,95020.81
2023-03-23T22:45:28.310Z,95011.50
2023-03-23T22:48:00.691Z,95017.38
2023-03-23T22:50:29.896Z,95023.25
2023-03-23T22:52:59.006Z,95022.16
2023-03-23T22:55:28.479Z,95021.38
2023-03-23T22:58:00.645Z,95023.78
2023-03-23T23:00:31.240Z,95029.47
2023-03-23T23:03:00.954Z,95021.41
2023-03-23T23:05:30.860Z,95018.19
2023-03-23T23:08:03.644Z,95009.25
2023-03-23T23:10:36.488Z,95011.53
2023-03-23T23:13:05.610Z,95001.06
2023-03-23T23:15:37.091Z,95006.97
2023-03-23T23:18:06.762Z,95004.94
2023-03-23T23:20:37.461Z,95006.53
2023-03-23T23:23:06.926Z,95010.38
2023-03-23T23:25:36.684Z,94991.94
2023-03-23T23:28:07.142Z,95004.50
2023-03-23T23:30:38.083Z,95001.59
2023-03-23T23:33:07.733Z,95005.44
2023-03-23T23:35:37.299Z,95008.47
2023-03-23T23:38:06.942Z,95006.59
2023-03-23T23:40:39.456Z,95005.44
2023-03-23T23:43:10.339Z,95004.03
2023-03-23T23:45:42.136Z,95006.88
2023-03-23T23:48:11.671Z,94999.63
2023-03-23T23:50:40.885Z,95007.97
2023-03-23T23:53:11.285Z,95009.38
2023-03-23T23:55:41.116Z,94998.31
2023-03-23T23:58:10.260Z,94999.53
